sensor_id;sensor_type;location;lat;lon;timestamp;temperature;humidity
76384;SHT30;65204;48.606;7.598;2023-02-15T00:00:10;3.90;76.32
76384;SHT30;65204;48.606;7.598;2023-02-15T00:00:41;3.90;75.99
76384;SHT30;65204;48.606;7.598;2023-02-15T00:01:12;3.90;76.05
76384;SHT30;65204;48.606;7.598;2023-02-15T00:01:43;3.89;76.30
76384;SHT30;65204;48.606;7.598;2023-02-15T00:02:13;3.89;76.01
76384;SHT30;65204;48.606;7.598;2023-02-15T00:02:43;3.90;76.91
76384;SHT30;65204;48.606;7.598;2023-02-15T00:03:16;3.90;76.33
76384;SHT30;65204;48.606;7.598;2023-02-15T00:03:49;3.92;75.67
76384;SHT30;65204;48.606;7.598;2023-02-15T00:04:23;3.92;75.68
76384;SHT30;65204;48.606;7.598;2023-02-15T00:04:53;3.93;76.12
76384;SHT30;65204;48.606;7.598;2023-02-15T00:05:26;3.93;75.94
76384;SHT30;65204;48.606;7.598;2023-02-15T00:05:57;3.93;76.33
76384;SHT30;65204;48.606;7.598;2023-02-15T00:06:27;3.93;76.29
76384;SHT30;65204;48.606;7.598;2023-02-15T00:06:58;3.96;76.49
76384;SHT30;65204;48.606;7.598;2023-02-15T00:07:28;3.96;76.20
76384;SHT30;65204;48.606;7.598;2023-02-15T00:07:59;3.96;76.27
76384;SHT30;65204;48.606;7.598;2023-02-15T00:08:29;3.94;76.13
76384;SHT30;65204;48.606;7.598;2023-02-15T00:09:00;3.96;76.29
76384;SHT30;65204;48.606;7.598;2023-02-15T00:09:30;3.93;76.43
76384;SHT30;65204;48.606;7.598;2023-02-15T00:10:01;3.93;76.43
76384;SHT30;65204;48.606;7.598;2023-02-15T00:10:31;3.94;76.31
76384;SHT30;65204;48.606;7.598;2023-02-15T00:11:10;3.93;76.28
76384;SHT30;65204;48.606;7.598;2023-02-15T00:11:41;3.94;76.83
76384;SHT30;65204;48.606;7.598;2023-02-15T00:12:19;3.96;76.37
76384;SHT30;65204;48.606;7.598;2023-02-15T00:12:50;3.93;76.76
76384;SHT30;65204;48.606;7.598;2023-02-15T00:13:20;3.93;76.76
76384;SHT30;65204;48.606;7.598;2023-02-15T00:13:50;3.96;76.34
76384;SHT30;65204;48.606;7.598;2023-02-15T00:14:23;3.93;75.96
76384;SHT30;65204;48.606;7.598;2023-02-15T00:14:54;3.94;76.09
76384;SHT30;65204;48.606;7.598;2023-02-15T00:15:24;3.94;76.49
76384;SHT30;65204;48.606;7.598;2023-02-15T00:16:03;3.93;76.44
76384;SHT30;65204;48.606;7.598;2023-02-15T00:16:34;3.90;76.35
76384;SHT30;65204;48.606;7.598;2023-02-15T00:17:05;3.93;76.24
76384;SHT30;65204;48.606;7.598;2023-02-15T00:17:35;3.94;76.08
76384;SHT30;65204;48.606;7.598;2023-02-15T00:18:06;3.94;76.18
76384;SHT30;65204;48.606;7.598;2023-02-15T00:18:38;3.94;76.04
76384;SHT30;65204;48.606;7.598;2023-02-15T00:19:09;3.96;76.08
76384;SHT30;65204;48.606;7.598;2023-02-15T00:19:40;3.96;76.19
76384;SHT30;65204;48.606;7.598;2023-02-15T00:20:10;3.94;76.12
76384;SHT30;65204;48.606;7.598;2023-02-15T00:20:41;3.93;76.35
76384;SHT30;65204;48.606;7.598;2023-02-15T00:21:11;3.93;76.54
76384;SHT30;65204;48.606;7.598;2023-02-15T00:21:42;3.96;76.20
76384;SHT30;65204;48.606;7.598;2023-02-15T00:22:12;3.96;76.45
76384;SHT30;65204;48.606;7.598;2023-02-15T00:22:43;3.94;76.20
76384;SHT30;65204;48.606;7.598;2023-02-15T00:23:13;3.94;76.54
76384;SHT30;65204;48.606;7.598;2023-02-15T00:23:43;3.97;76.84
76384;SHT30;65204;48.606;7.598;2023-02-15T00:24:16;4.00;76.94
76384;SHT30;65204;48.606;7.598;2023-02-15T00:24:47;3.99;76.62
76384;SHT30;65204;48.606;7.598;2023-02-15T00:25:17;4.00;76.79
76384;SHT30;65204;48.606;7.598;2023-02-15T00:25:47;3.99;76.60
76384;SHT30;65204;48.606;7.598;2023-02-15T00:26:18;4.01;76.93
76384;SHT30;65204;48.606;7.598;2023-02-15T00:26:49;3.99;76.87
76384;SHT30;65204;48.606;7.598;2023-02-15T00:27:19;3.96;76.73
76384;SHT30;65204;48.606;7.598;2023-02-15T00:27:50;3.97;76.50
76384;SHT30;65204;48.606;7.598;2023-02-15T00:28:20;3.94;77.17
76384;SHT30;65204;48.606;7.598;2023-02-15T00:28:52;3.97;77.34
76384;SHT30;65204;48.606;7.598;2023-02-15T00:29:23;3.97;77.18
76384;SHT30;65204;48.606;7.598;2023-02-15T00:29:53;3.96;77.39
76384;SHT30;65204;48.606;7.598;2023-02-15T00:30:24;3.99;77.28
76384;SHT30;65204;48.606;7.598;2023-02-15T00:30:54;3.96;77.00
76384;SHT30;65204;48.606;7.598;2023-02-15T00:31:26;3.93;77.78
76384;SHT30;65204;48.606;7.598;2023-02-15T00:31:56;3.94;77.41
76384;SHT30;65204;48.606;7.598;2023-02-15T00:32:27;3.93;76.99
76384;SHT30;65204;48.606;7.598;2023-02-15T00:32:57;3.92;77.22
76384;SHT30;65204;48.606;7.598;2023-02-15T00:33:27;3.92;77.40
76384;SHT30;65204;48.606;7.598;2023-02-15T00:34:11;3.92;77.20
76384;SHT30;65204;48.606;7.598;2023-02-15T00:34:41;3.90;76.86
76384;SHT30;65204;48.606;7.598;2023-02-15T00:35:11;3.89;76.77
76384;SHT30;65204;48.606;7.598;2023-02-15T00:35:42;3.87;77.11
76384;SHT30;65204;48.606;7.598;2023-02-15T00:36:13;3.87;77.26
76384;SHT30;65204;48.606;7.598;2023-02-15T00:36:43;3.86;76.99
76384;SHT30;65204;48.606;7.598;2023-02-15T00:37:14;3.87;77.34
76384;SHT30;65204;48.606;7.598;2023-02-15T00:37:44;3.87;77.52
76384;SHT30;65204;48.606;7.598;2023-02-15T00:38:14;3.92;77.36
76384;SHT30;65204;48.606;7.598;2023-02-15T00:38:45;3.94;76.98
76384;SHT30;65204;48.606;7.598;2023-02-15T00:39:16;3.90;77.17
76384;SHT30;65204;48.606;7.598;2023-02-15T00:39:47;3.93;77.77
76384;SHT30;65204;48.606;7.598;2023-02-15T00:40:18;3.92;77.53
76384;SHT30;65204;48.606;7.598;2023-02-15T00:40:56;3.92;77.50
76384;SHT30;65204;48.606;7.598;2023-02-15T00:41:26;3.89;77.17
76384;SHT30;65204;48.606;7.598;2023-02-15T00:41:57;3.87;77.44
76384;SHT30;65204;48.606;7.598;2023-02-15T00:42:27;3.90;77.23
76384;SHT30;65204;48.606;7.598;2023-02-15T00:42:57;3.87;77.48
76384;SHT30;65204;48.606;7.598;2023-02-15T00:43:30;3.87;77.62
76384;SHT30;65204;48.606;7.598;2023-02-15T00:44:01;3.90;77.49
76384;SHT30;65204;48.606;7.598;2023-02-15T00:44:31;3.92;77.29
76384;SHT30;65204;48.606;7.598;2023-02-15T00:45:02;3.92;77.29
76384;SHT30;65204;48.606;7.598;2023-02-15T00:45:32;3.93;77.10
76384;SHT30;65204;48.606;7.598;2023-02-15T00:46:04;3.94;76.87
76384;SHT30;65204;48.606;7.598;2023-02-15T00:46:35;3.94;76.95
76384;SHT30;65204;48.606;7.598;2023-02-15T00:47:05;3.97;76.97
76384;SHT30;65204;48.606;7.598;2023-02-15T00:47:36;3.99;77.05
76384;SHT30;65204;48.606;7.598;2023-02-15T00:48:06;3.97;77.10
76384;SHT30;65204;48.606;7.598;2023-02-15T00:48:36;4.03;77.01
76384;SHT30;65204;48.606;7.598;2023-02-15T00:49:07;4.00;77.04
76384;SHT30;65204;48.606;7.598;2023-02-15T00:49:37;4.01;76.84
76384;SHT30;65204;48.606;7.598;2023-02-15T00:50:08;4.01;76.68
76384;SHT30;65204;48.606;7.598;2023-02-15T00:50:38;4.04;76.33
76384;SHT30;65204;48.606;7.598;2023-02-15T00:51:09;4.04;76.47
76384;SHT30;65204;48.606;7.598;2023-02-15T00:51:39;4.06;76.35
76384;SHT30;65204;48.606;7.598;2023-02-15T00:52:09;4.04;76.60
76384;SHT30;65204;48.606;7.598;2023-02-15T00:52:40;4.04;76.38
76384;SHT30;65204;48.606;7.598;2023-02-15T00:53:10;4.06;76.40
76384;SHT30;65204;48.606;7.598;2023-02-15T00:53:40;4.04;76.51
76384;SHT30;65204;48.606;7.598;2023-02-15T00:54:11;4.07;76.49
76384;SHT30;65204;48.606;7.598;2023-02-15T00:54:41;4.07;76.57
76384;SHT30;65204;48.606;7.598;2023-02-15T00:55:11;4.07;76.47
76384;SHT30;65204;48.606;7.598;2023-02-15T00:55:42;4.06;76.74
76384;SHT30;65204;48.606;7.598;2023-02-15T00:56:12;4.06;76.45
76384;SHT30;65204;48.606;7.598;2023-02-15T00:56:43;4.06;76.81
76384;SHT30;65204;48.606;7.598;2023-02-15T00:57:13;4.07;76.53
76384;SHT30;65204;48.606;7.598;2023-02-15T00:57:43;4.04;76.35
76384;SHT30;65204;48.606;7.598;2023-02-15T00:58:14;4.04;76.44
76384;SHT30;65204;48.606;7.598;2023-02-15T00:58:45;4.09;76.33
76384;SHT30;65204;48.606;7.598;2023-02-15T00:59:15;4.09;76.16
76384;SHT30;65204;48.606;7.598;2023-02-15T00:59:45;4.09;76.32
76384;SHT30;65204;48.606;7.598;2023-02-15T01:00:16;4.07;76.36
76384;SHT30;65204;48.606;7.598;2023-02-15T01:00:47;4.10;76.08
76384;SHT30;65204;48.606;7.598;2023-02-15T01:01:19;4.09;76.00
76384;SHT30;65204;48.606;7.598;2023-02-15T01:01:50;4.09;76.19
76384;SHT30;65204;48.606;7.598;2023-02-15T01:02:20;4.07;76.12
76384;SHT30;65204;48.606;7.598;2023-02-15T01:02:51;4.07;76.25
76384;SHT30;65204;48.606;7.598;2023-02-15T01:03:21;4.10;76.15
76384;SHT30;65204;48.606;7.598;2023-02-15T01:03:51;4.07;76.32
76384;SHT30;65204;48.606;7.598;2023-02-15T01:04:22;4.11;76.32
76384;SHT30;65204;48.606;7.598;2023-02-15T01:04:52;4.10;76.03
76384;SHT30;65204;48.606;7.598;2023-02-15T01:05:22;4.10;76.11
76384;SHT30;65204;48.606;7.598;2023-02-15T01:05:53;4.10;76.17
76384;SHT30;65204;48.606;7.598;2023-02-15T01:06:23;4.10;76.00
76384;SHT30;65204;48.606;7.598;2023-02-15T01:06:53;4.10;76.12
76384;SHT30;65204;48.606;7.598;2023-02-15T01:07:23;4.06;76.48
76384;SHT30;65204;48.606;7.598;2023-02-15T01:07:54;4.09;76.65
76384;SHT30;65204;48.606;7.598;2023-02-15T01:08:25;4.10;76.43
76384;SHT30;65204;48.606;7.598;2023-02-15T01:08:55;4.09;76.64
76384;SHT30;65204;48.606;7.598;2023-02-15T01:09:25;4.10;76.51
76384;SHT30;65204;48.606;7.598;2023-02-15T01:09:56;4.10;76.44
76384;SHT30;65204;48.606;7.598;2023-02-15T01:10:26;4.10;76.51
76384;SHT30;65204;48.606;7.598;2023-02-15T01:11:03;4.11;76.54
76384;SHT30;65204;48.606;7.598;2023-02-15T01:11:33;4.14;76.57
76384;SHT30;65204;48.606;7.598;2023-02-15T01:12:04;4.14;76.32
76384;SHT30;65204;48.606;7.598;2023-02-15T01:12:34;4.17;76.29
76384;SHT30;65204;48.606;7.598;2023-02-15T01:13:05;4.14;76.09
76384;SHT30;65204;48.606;7.598;2023-02-15T01:13:36;4.14;76.21
76384;SHT30;65204;48.606;7.598;2023-02-15T01:14:07;4.17;75.93
76384;SHT30;65204;48.606;7.598;2023-02-15T01:14:37;4.16;76.20
76384;SHT30;65204;48.606;7.598;2023-02-15T01:15:07;4.16;76.02
76384;SHT30;65204;48.606;7.598;2023-02-15T01:15:38;4.17;76.23
76384;SHT30;65204;48.606;7.598;2023-02-15T01:16:08;4.17;76.19
76384;SHT30;65204;48.606;7.598;2023-02-15T01:16:38;4.17;76.12
76384;SHT30;65204;48.606;7.598;2023-02-15T01:17:09;4.21;75.93
76384;SHT30;65204;48.606;7.598;2023-02-15T01:17:39;4.21;75.76
76384;SHT30;65204;48.606;7.598;2023-02-15T01:18:10;4.20;75.69
76384;SHT30;65204;48.606;7.598;2023-02-15T01:18:41;4.20;75.97
76384;SHT30;65204;48.606;7.598;2023-02-15T01:19:12;4.20;75.95
76384;SHT30;65204;48.606;7.598;2023-02-15T01:19:42;4.21;76.05
76384;SHT30;65204;48.606;7.598;2023-02-15T01:20:12;4.23;76.14
76384;SHT30;65204;48.606;7.598;2023-02-15T01:20:43;4.21;76.11
76384;SHT30;65204;48.606;7.598;2023-02-15T01:21:15;4.23;76.14
76384;SHT30;65204;48.606;7.598;2023-02-15T01:21:46;4.24;76.54
76384;SHT30;65204;48.606;7.598;2023-02-15T01:22:17;4.24;76.34
76384;SHT30;65204;48.606;7.598;2023-02-15T01:22:48;4.25;76.10
76384;SHT30;65204;48.606;7.598;2023-02-15T01:23:19;4.29;76.10
76384;SHT30;65204;48.606;7.598;2023-02-15T01:23:50;4.29;76.25
76384;SHT30;65204;48.606;7.598;2023-02-15T01:24:20;4.27;76.25
76384;SHT30;65204;48.606;7.598;2023-02-15T01:24:51;4.29;76.17
76384;SHT30;65204;48.606;7.598;2023-02-15T01:25:23;4.30;75.97
76384;SHT30;65204;48.606;7.598;2023-02-15T01:25:54;4.29;75.91
76384;SHT30;65204;48.606;7.598;2023-02-15T01:26:24;4.30;75.89
76384;SHT30;65204;48.606;7.598;2023-02-15T01:26:54;4.29;75.84
76384;SHT30;65204;48.606;7.598;2023-02-15T01:27:25;4.30;75.82
76384;SHT30;65204;48.606;7.598;2023-02-15T01:27:55;4.29;75.91
76384;SHT30;65204;48.606;7.598;2023-02-15T01:28:25;4.33;75.92
76384;SHT30;65204;48.606;7.598;2023-02-15T01:28:56;4.31;75.76
76384;SHT30;65204;48.606;7.598;2023-02-15T01:29:26;4.31;75.66
76384;SHT30;65204;48.606;7.598;2023-02-15T01:29:56;4.33;75.94
76384;SHT30;65204;48.606;7.598;2023-02-15T01:30:27;4.33;75.83
76384;SHT30;65204;48.606;7.598;2023-02-15T01:30:57;4.31;75.85
76384;SHT30;65204;48.606;7.598;2023-02-15T01:31:29;4.33;75.83
76384;SHT30;65204;48.606;7.598;2023-02-15T01:31:59;4.34;75.87
76384;SHT30;65204;48.606;7.598;2023-02-15T01:32:30;4.34;75.84
76384;SHT30;65204;48.606;7.598;2023-02-15T01:33:00;4.33;75.72
76384;SHT30;65204;48.606;7.598;2023-02-15T01:33:31;4.31;75.49
76384;SHT30;65204;48.606;7.598;2023-02-15T01:34:01;4.31;75.60
76384;SHT30;65204;48.606;7.598;2023-02-15T01:34:32;4.34;75.97
76384;SHT30;65204;48.606;7.598;2023-02-15T01:35:02;4.31;76.11
76384;SHT30;65204;48.606;7.598;2023-02-15T01:35:33;4.31;75.99
76384;SHT30;65204;48.606;7.598;2023-02-15T01:36:06;4.33;76.03
76384;SHT30;65204;48.606;7.598;2023-02-15T01:36:37;4.31;76.14
76384;SHT30;65204;48.606;7.598;2023-02-15T01:37:07;4.29;76.45
76384;SHT30;65204;48.606;7.598;2023-02-15T01:37:37;4.31;76.22
76384;SHT30;65204;48.606;7.598;2023-02-15T01:38:08;4.33;76.08
76384;SHT30;65204;48.606;7.598;2023-02-15T01:38:38;4.34;76.40
76384;SHT30;65204;48.606;7.598;2023-02-15T01:39:10;4.36;76.14
76384;SHT30;65204;48.606;7.598;2023-02-15T01:39:40;4.36;76.12
76384;SHT30;65204;48.606;7.598;2023-02-15T01:40:16;4.37;76.42
76384;SHT30;65204;48.606;7.598;2023-02-15T01:40:51;4.36;75.51
76384;SHT30;65204;48.606;7.598;2023-02-15T01:41:21;4.36;75.79
76384;SHT30;65204;48.606;7.598;2023-02-15T01:41:56;4.31;75.70
76384;SHT30;65204;48.606;7.598;2023-02-15T01:42:28;4.31;75.52
76384;SHT30;65204;48.606;7.598;2023-02-15T01:42:59;4.31;76.08
76384;SHT30;65204;48.606;7.598;2023-02-15T01:43:42;4.31;76.25
76384;SHT30;65204;48.606;7.598;2023-02-15T01:45:31;4.34;76.31
76384;SHT30;65204;48.606;7.598;2023-02-15T01:46:02;4.37;76.57
76384;SHT30;65204;48.606;7.598;2023-02-15T01:46:36;4.34;76.36
76384;SHT30;65204;48.606;7.598;2023-02-15T01:47:09;4.33;76.67
76384;SHT30;65204;48.606;7.598;2023-02-15T01:47:43;4.29;76.86
76384;SHT30;65204;48.606;7.598;2023-02-15T01:48:20;4.31;76.78
76384;SHT30;65204;48.606;7.598;2023-02-15T01:48:55;4.30;76.91
76384;SHT30;65204;48.606;7.598;2023-02-15T01:49:26;4.30;77.25
76384;SHT30;65204;48.606;7.598;2023-02-15T01:50:44;4.29;76.10
76384;SHT30;65204;48.606;7.598;2023-02-15T01:51:19;4.29;76.12
76384;SHT30;65204;48.606;7.598;2023-02-15T01:51:52;4.31;76.27
76384;SHT30;65204;48.606;7.598;2023-02-15T01:52:23;4.31;76.25
76384;SHT30;65204;48.606;7.598;2023-02-15T01:53:57;4.34;76.22
76384;SHT30;65204;48.606;7.598;2023-02-15T01:54:31;4.33;76.13
76384;SHT30;65204;48.606;7.598;2023-02-15T01:55:03;4.33;76.26
76384;SHT30;65204;48.606;7.598;2023-02-15T01:55:42;4.33;76.33
76384;SHT30;65204;48.606;7.598;2023-02-15T01:56:21;4.33;76.39
76384;SHT30;65204;48.606;7.598;2023-02-15T01:56:52;4.37;76.14
76384;SHT30;65204;48.606;7.598;2023-02-15T01:57:25;4.37;75.84
76384;SHT30;65204;48.606;7.598;2023-02-15T01:57:57;4.36;76.01
76384;SHT30;65204;48.606;7.598;2023-02-15T01:58:29;4.36;75.99
76384;SHT30;65204;48.606;7.598;2023-02-15T01:59:04;4.30;75.85
76384;SHT30;65204;48.606;7.598;2023-02-15T01:59:38;4.34;76.17
76384;SHT30;65204;48.606;7.598;2023-02-15T02:00:09;4.33;76.19
76384;SHT30;65204;48.606;7.598;2023-02-15T02:00:40;4.30;76.45
76384;SHT30;65204;48.606;7.598;2023-02-15T02:01:11;4.30;76.68
76384;SHT30;65204;48.606;7.598;2023-02-15T02:01:41;4.29;76.41
76384;SHT30;65204;48.606;7.598;2023-02-15T02:02:13;4.29;76.23
76384;SHT30;65204;48.606;7.598;2023-02-15T02:02:46;4.29;76.37
76384;SHT30;65204;48.606;7.598;2023-02-15T02:04:18;4.31;76.35
76384;SHT30;65204;48.606;7.598;2023-02-15T02:05:01;4.33;76.47
76384;SHT30;65204;48.606;7.598;2023-02-15T02:05:39;4.31;76.09
76384;SHT30;65204;48.606;7.598;2023-02-15T02:06:10;4.29;76.68
76384;SHT30;65204;48.606;7.598;2023-02-15T02:06:41;4.25;76.09
76384;SHT30;65204;48.606;7.598;2023-02-15T02:07:14;4.24;76.32
76384;SHT30;65204;48.606;7.598;2023-02-15T02:07:46;4.21;76.57
76384;SHT30;65204;48.606;7.598;2023-02-15T02:08:18;4.20;76.69
76384;SHT30;65204;48.606;7.598;2023-02-15T02:08:48;4.18;77.03
76384;SHT30;65204;48.606;7.598;2023-02-15T02:09:18;4.16;76.81
76384;SHT30;65204;48.606;7.598;2023-02-15T02:09:49;4.20;76.94
76384;SHT30;65204;48.606;7.598;2023-02-15T02:10:22;4.20;76.97
76384;SHT30;65204;48.606;7.598;2023-02-15T02:10:53;4.18;76.66
76384;SHT30;65204;48.606;7.598;2023-02-15T02:11:24;4.17;76.68
76384;SHT30;65204;48.606;7.598;2023-02-15T02:11:54;4.20;76.78
76384;SHT30;65204;48.606;7.598;2023-02-15T02:12:25;4.23;76.70
76384;SHT30;65204;48.606;7.598;2023-02-15T02:13:04;4.21;76.48
76384;SHT30;65204;48.606;7.598;2023-02-15T02:13:35;4.21;76.60
76384;SHT30;65204;48.606;7.598;2023-02-15T02:14:05;4.23;76.51
76384;SHT30;65204;48.606;7.598;2023-02-15T02:14:37;4.20;76.24
76384;SHT30;65204;48.606;7.598;2023-02-15T02:15:08;4.21;76.23
76384;SHT30;65204;48.606;7.598;2023-02-15T02:15:46;4.23;76.32
76384;SHT30;65204;48.606;7.598;2023-02-15T02:16:22;4.23;76.37
76384;SHT30;65204;48.606;7.598;2023-02-15T02:17:38;4.23;76.39
76384;SHT30;65204;48.606;7.598;2023-02-15T02:18:23;4.24;76.59
76384;SHT30;65204;48.606;7.598;2023-02-15T02:22:13;4.25;76.95
76384;SHT30;65204;48.606;7.598;2023-02-15T02:22:51;4.23;77.05
76384;SHT30;65204;48.606;7.598;2023-02-15T02:23:30;4.21;76.89
76384;SHT30;65204;48.606;7.598;2023-02-15T02:31:36;4.16;75.97
76384;SHT30;65204;48.606;7.598;2023-02-15T02:32:29;4.17;76.27
76384;SHT30;65204;48.606;7.598;2023-02-15T02:33:38;4.16;76.22
76384;SHT30;65204;48.606;7.598;2023-02-15T02:34:33;4.17;76.08
76384;SHT30;65204;48.606;7.598;2023-02-15T02:35:11;4.13;75.96
76384;SHT30;65204;48.606;7.598;2023-02-15T02:35:56;4.13;76.22
76384;SHT30;65204;48.606;7.598;2023-02-15T02:37:12;4.07;76.35
76384;SHT30;65204;48.606;7.598;2023-02-15T02:39:33;4.01;76.84
76384;SHT30;65204;48.606;7.598;2023-02-15T02:40:31;4.00;77.19
76384;SHT30;65204;48.606;7.598;2023-02-15T02:42:06;3.99;76.98
76384;SHT30;65204;48.606;7.598;2023-02-15T02:42:41;3.96;77.56
76384;SHT30;65204;48.606;7.598;2023-02-15T02:43:31;3.94;77.37
76384;SHT30;65204;48.606;7.598;2023-02-15T02:44:20;3.94;77.42
76384;SHT30;65204;48.606;7.598;2023-02-15T02:46:05;3.96;77.33
76384;SHT30;65204;48.606;7.598;2023-02-15T02:47:40;3.97;77.05
76384;SHT30;65204;48.606;7.598;2023-02-15T02:48:20;3.99;76.84
76384;SHT30;65204;48.606;7.598;2023-02-15T02:48:52;3.99;76.82
76384;SHT30;65204;48.606;7.598;2023-02-15T02:49:39;3.99;77.02
76384;SHT30;65204;48.606;7.598;2023-02-15T02:50:16;4.00;76.78
76384;SHT30;65204;48.606;7.598;2023-02-15T02:50:47;4.01;76.82
76384;SHT30;65204;48.606;7.598;2023-02-15T02:51:17;4.00;76.83
76384;SHT30;65204;48.606;7.598;2023-02-15T02:52:01;4.03;76.73
76384;SHT30;65204;48.606;7.598;2023-02-15T02:53:05;4.03;76.55
76384;SHT30;65204;48.606;7.598;2023-02-15T02:53:36;4.00;76.54
76384;SHT30;65204;48.606;7.598;2023-02-15T02:54:07;4.01;76.54
76384;SHT30;65204;48.606;7.598;2023-02-15T02:54:37;4.03;76.70
76384;SHT30;65204;48.606;7.598;2023-02-15T02:55:16;4.00;76.90
76384;SHT30;65204;48.606;7.598;2023-02-15T02:56:06;4.03;76.55
76384;SHT30;65204;48.606;7.598;2023-02-15T02:56:46;4.04;76.17
76384;SHT30;65204;48.606;7.598;2023-02-15T02:57:18;4.03;76.15
76384;SHT30;65204;48.606;7.598;2023-02-15T02:58:52;4.06;76.20
76384;SHT30;65204;48.606;7.598;2023-02-15T02:59:30;4.06;76.28
76384;SHT30;65204;48.606;7.598;2023-02-15T03:00:04;4.06;76.29
76384;SHT30;65204;48.606;7.598;2023-02-15T03:00:40;4.07;76.30
76384;SHT30;65204;48.606;7.598;2023-02-15T03:01:45;4.09;76.33
76384;SHT30;65204;48.606;7.598;2023-02-15T03:02:18;4.10;76.28
76384;SHT30;65204;48.606;7.598;2023-02-15T03:02:56;4.10;76.15
76384;SHT30;65204;48.606;7.598;2023-02-15T03:03:50;4.11;76.18
76384;SHT30;65204;48.606;7.598;2023-02-15T03:04:25;4.13;76.09
76384;SHT30;65204;48.606;7.598;2023-02-15T03:05:03;4.14;75.98
76384;SHT30;65204;48.606;7.598;2023-02-15T03:05:40;4.13;75.97
76384;SHT30;65204;48.606;7.598;2023-02-15T03:06:21;4.13;75.96
76384;SHT30;65204;48.606;7.598;2023-02-15T03:07:00;4.13;76.01
76384;SHT30;65204;48.606;7.598;2023-02-15T03:07:32;4.09;75.90
76384;SHT30;65204;48.606;7.598;2023-02-15T03:08:05;4.07;76.00
76384;SHT30;65204;48.606;7.598;2023-02-15T03:08:45;4.09;76.05
76384;SHT30;65204;48.606;7.598;2023-02-15T03:09:27;4.06;75.87
76384;SHT30;65204;48.606;7.598;2023-02-15T03:10:05;4.07;75.89
76384;SHT30;65204;48.606;7.598;2023-02-15T03:10:38;4.09;75.73
76384;SHT30;65204;48.606;7.598;2023-02-15T03:11:09;4.07;75.80
76384;SHT30;65204;48.606;7.598;2023-02-15T03:11:41;4.07;75.79
76384;SHT30;65204;48.606;7.598;2023-02-15T03:12:16;4.06;75.87
76384;SHT30;65204;48.606;7.598;2023-02-15T03:12:48;4.04;75.95
76384;SHT30;65204;48.606;7.598;2023-02-15T03:13:19;4.07;76.14
76384;SHT30;65204;48.606;7.598;2023-02-15T03:13:50;4.07;76.09
76384;SHT30;65204;48.606;7.598;2023-02-15T03:14:20;4.10;76.00
76384;SHT30;65204;48.606;7.598;2023-02-15T03:15:53;4.07;76.21
76384;SHT30;65204;48.606;7.598;2023-02-15T03:16:24;4.11;76.04
76384;SHT30;65204;48.606;7.598;2023-02-15T03:16:56;4.13;75.93
76384;SHT30;65204;48.606;7.598;2023-02-15T03:17:28;4.10;75.95
76384;SHT30;65204;48.606;7.598;2023-02-15T03:18:01;4.07;75.90
76384;SHT30;65204;48.606;7.598;2023-02-15T03:18:38;4.11;76.03
76384;SHT30;65204;48.606;7.598;2023-02-15T03:19:16;4.07;75.81
76384;SHT30;65204;48.606;7.598;2023-02-15T03:19:50;4.06;75.94
76384;SHT30;65204;48.606;7.598;2023-02-15T03:20:26;4.06;75.77
76384;SHT30;65204;48.606;7.598;2023-02-15T03:21:01;4.04;75.93
76384;SHT30;65204;48.606;7.598;2023-02-15T03:21:43;4.01;75.92
76384;SHT30;65204;48.606;7.598;2023-02-15T03:22:26;4.06;76.08
76384;SHT30;65204;48.606;7.598;2023-02-15T03:23:00;4.06;75.96
76384;SHT30;65204;48.606;7.598;2023-02-15T03:23:32;4.07;76.22
76384;SHT30;65204;48.606;7.598;2023-02-15T03:24:10;4.07;76.12
76384;SHT30;65204;48.606;7.598;2023-02-15T03:24:48;4.09;75.92
76384;SHT30;65204;48.606;7.598;2023-02-15T03:25:25;4.07;75.66
76384;SHT30;65204;48.606;7.598;2023-02-15T03:25:59;4.11;75.59
76384;SHT30;65204;48.606;7.598;2023-02-15T03:26:32;4.06;75.45
76384;SHT30;65204;48.606;7.598;2023-02-15T03:27:07;4.07;75.47
76384;SHT30;65204;48.606;7.598;2023-02-15T03:27:43;4.10;75.52
76384;SHT30;65204;48.606;7.598;2023-02-15T03:28:20;4.06;75.63
76384;SHT30;65204;48.606;7.598;2023-02-15T03:28:53;4.07;76.05
76384;SHT30;65204;48.606;7.598;2023-02-15T03:29:27;4.09;75.94
76384;SHT30;65204;48.606;7.598;2023-02-15T03:29:59;4.10;76.05
76384;SHT30;65204;48.606;7.598;2023-02-15T03:30:31;4.06;75.43
76384;SHT30;65204;48.606;7.598;2023-02-15T03:31:05;4.10;75.50
76384;SHT30;65204;48.606;7.598;2023-02-15T03:31:40;4.04;75.67
76384;SHT30;65204;48.606;7.598;2023-02-15T03:32:14;4.04;75.81
76384;SHT30;65204;48.606;7.598;2023-02-15T03:32:47;4.03;75.84
76384;SHT30;65204;48.606;7.598;2023-02-15T03:33:19;4.06;75.86
76384;SHT30;65204;48.606;7.598;2023-02-15T03:33:55;4.04;75.98
76384;SHT30;65204;48.606;7.598;2023-02-15T03:34:27;4.09;75.97
76384;SHT30;65204;48.606;7.598;2023-02-15T03:34:57;4.07;75.92
76384;SHT30;65204;48.606;7.598;2023-02-15T03:35:36;4.09;75.69
76384;SHT30;65204;48.606;7.598;2023-02-15T03:37:48;4.13;75.57
76384;SHT30;65204;48.606;7.598;2023-02-15T03:38:28;4.10;75.65
76384;SHT30;65204;48.606;7.598;2023-02-15T03:39:16;4.09;75.63
76384;SHT30;65204;48.606;7.598;2023-02-15T03:39:59;4.13;75.36
76384;SHT30;65204;48.606;7.598;2023-02-15T03:40:50;4.13;75.16
76384;SHT30;65204;48.606;7.598;2023-02-15T03:42:05;4.09;75.89
76384;SHT30;65204;48.606;7.598;2023-02-15T03:42:39;4.10;76.18
76384;SHT30;65204;48.606;7.598;2023-02-15T03:44:04;4.07;75.98
76384;SHT30;65204;48.606;7.598;2023-02-15T03:44:51;4.04;75.97
76384;SHT30;65204;48.606;7.598;2023-02-15T03:45:25;4.06;75.74
76384;SHT30;65204;48.606;7.598;2023-02-15T03:46:11;4.00;75.68
76384;SHT30;65204;48.606;7.598;2023-02-15T03:46:50;4.00;76.21
76384;SHT30;65204;48.606;7.598;2023-02-15T03:47:27;3.96;76.03
76384;SHT30;65204;48.606;7.598;2023-02-15T03:48:00;3.97;76.36
76384;SHT30;65204;48.606;7.598;2023-02-15T03:48:37;3.94;76.44
76384;SHT30;65204;48.606;7.598;2023-02-15T03:49:10;3.99;76.44
76384;SHT30;65204;48.606;7.598;2023-02-15T03:49:45;3.96;76.49
76384;SHT30;65204;48.606;7.598;2023-02-15T03:50:21;3.97;76.39
76384;SHT30;65204;48.606;7.598;2023-02-15T03:51:17;3.96;76.23
76384;SHT30;65204;48.606;7.598;2023-02-15T03:52:05;3.96;76.06
76384;SHT30;65204;48.606;7.598;2023-02-15T03:52:37;3.99;76.16
76384;SHT30;65204;48.606;7.598;2023-02-15T03:53:10;3.99;76.30
76384;SHT30;65204;48.606;7.598;2023-02-15T03:53:43;3.99;76.27
76384;SHT30;65204;48.606;7.598;2023-02-15T03:54:21;3.99;76.37
76384;SHT30;65204;48.606;7.598;2023-02-15T03:55:11;4.03;76.01
76384;SHT30;65204;48.606;7.598;2023-02-15T03:55:41;4.00;75.99
76384;SHT30;65204;48.606;7.598;2023-02-15T03:56:11;4.03;75.88
76384;SHT30;65204;48.606;7.598;2023-02-15T03:56:42;4.01;75.99
76384;SHT30;65204;48.606;7.598;2023-02-15T03:57:35;4.04;75.98
76384;SHT30;65204;48.606;7.598;2023-02-15T03:58:25;4.06;75.87
76384;SHT30;65204;48.606;7.598;2023-02-15T03:59:14;4.04;75.91
76384;SHT30;65204;48.606;7.598;2023-02-15T04:01:05;4.03;75.78
76384;SHT30;65204;48.606;7.598;2023-02-15T04:02:25;4.04;75.95
76384;SHT30;65204;48.606;7.598;2023-02-15T04:03:57;4.01;76.00
76384;SHT30;65204;48.606;7.598;2023-02-15T04:04:38;4.01;75.99
76384;SHT30;65204;48.606;7.598;2023-02-15T04:05:11;3.99;76.10